createdAt,value
2022-10-06T00:00:37.128Z,14.59
2022-10-06T00:01:39.211Z,14.59
2022-10-06T00:02:41.350Z,14.58
2022-10-06T00:03:43.382Z,14.58
2022-10-06T00:04:45.333Z,14.57
2022-10-06T00:05:47.310Z,14.58
2022-10-06T00:06:49.246Z,14.58
2022-10-06T00:07:51.201Z,14.58
2022-10-06T00:08:53.145Z,14.60
2022-10-06T00:09:55.094Z,14.60
2022-10-06T00:10:57.149Z,14.60
2022-10-06T00:11:59.100Z,14.61
2022-10-06T00:13:01.048Z,14.61
2022-10-06T00:14:03.008Z,14.63
2022-10-06T00:15:04.945Z,14.61
2022-10-06T00:16:07.469Z,14.62
2022-10-06T00:17:10.836Z,14.62
2022-10-06T00:18:12.772Z,14.61
2022-10-06T00:19:14.732Z,14.60
2022-10-06T00:20:16.980Z,14.61
2022-10-06T00:21:18.974Z,14.61
2022-10-06T00:22:20.923Z,14.62
2022-10-06T00:23:22.863Z,14.63
2022-10-06T00:24:24.811Z,14.64
2022-10-06T00:25:26.753Z,14.65
2022-10-06T00:26:28.769Z,14.66
2022-10-06T00:27:30.707Z,14.67
2022-10-06T00:28:33.308Z,14.67
2022-10-06T00:29:35.524Z,14.66
2022-10-06T00:30:37.804Z,14.65
2022-10-06T00:31:39.788Z,14.65
2022-10-06T00:32:41.763Z,14.66
2022-10-06T00:33:43.711Z,14.67
2022-10-06T00:34:45.648Z,14.66
2022-10-06T00:35:47.603Z,14.67
2022-10-06T00:36:49.589Z,14.67
2022-10-06T00:37:51.539Z,14.67
2022-10-06T00:38:53.498Z,14.65
2022-10-06T00:39:56.079Z,14.66
2022-10-06T00:40:58.045Z,14.65
2022-10-06T00:42:00.496Z,14.64
2022-10-06T00:43:02.427Z,14.65
2022-10-06T00:44:04.375Z,14.65
2022-10-06T00:45:06.336Z,14.66
2022-10-06T00:46:08.419Z,14.66
2022-10-06T00:47:11.554Z,14.65
2022-10-06T00:48:13.517Z,14.65
2022-10-06T00:49:15.488Z,14.65
2022-10-06T00:50:18.039Z,14.65
2022-10-06T00:51:19.978Z,14.65
2022-10-06T00:52:21.959Z,14.65
2022-10-06T00:53:23.909Z,14.65
2022-10-06T00:54:25.875Z,14.66
2022-10-06T00:55:27.821Z,14.65
2022-10-06T00:56:29.875Z,14.64
2022-10-06T00:57:32.151Z,14.65
2022-10-06T00:58:34.091Z,14.64
2022-10-06T00:59:36.257Z,14.65
2022-10-06T01:00:38.297Z,14.65
2022-10-06T01:01:40.723Z,14.64
2022-10-06T01:02:42.778Z,14.64
2022-10-06T01:03:44.787Z,14.67
2022-10-06T01:04:46.741Z,14.67
2022-10-06T01:05:48.694Z,14.67
2022-10-06T01:06:50.644Z,14.68
2022-10-06T01:07:52.621Z,14.66
2022-10-06T01:08:54.577Z,14.66
2022-10-06T01:09:56.526Z,14.65
2022-10-06T01:10:58.481Z,14.65
2022-10-06T01:12:00.432Z,14.64
2022-10-06T01:13:02.415Z,14.64
2022-10-06T01:14:04.390Z,14.63
2022-10-06T01:15:06.333Z,14.63
2022-10-06T01:16:08.558Z,14.63
2022-10-06T01:17:10.527Z,14.62
2022-10-06T01:18:12.512Z,14.63
2022-10-06T01:19:14.464Z,14.63
2022-10-06T01:20:16.513Z,14.63
2022-10-06T01:21:18.476Z,14.62
2022-10-06T01:22:20.417Z,14.62
2022-10-06T01:23:22.406Z,14.61
2022-10-06T01:24:24.357Z,14.61
2022-10-06T01:25:26.295Z,14.60
2022-10-06T01:26:28.349Z,14.60
2022-10-06T01:27:30.292Z,14.60
2022-10-06T01:28:33.144Z,14.58
2022-10-06T01:29:35.314Z,14.59
2022-10-06T01:30:37.365Z,14.59
2022-10-06T01:31:39.322Z,14.58
2022-10-06T01:32:41.284Z,14.58
2022-10-06T01:33:43.267Z,14.58
2022-10-06T01:34:45.230Z,14.57
2022-10-06T01:35:47.182Z,14.57
2022-10-06T01:36:49.330Z,14.55
2022-10-06T01:37:51.283Z,14.55
2022-10-06T01:38:53.276Z,14.54
2022-10-06T01:39:55.220Z,14.54
2022-10-06T01:40:57.172Z,14.53
2022-10-06T01:41:59.110Z,14.52
2022-10-06T01:43:01.052Z,14.51
2022-10-06T01:44:03.110Z,14.50
2022-10-06T01:45:05.072Z,14.51
2022-10-06T01:46:07.693Z,14.49
2022-10-06T01:47:09.777Z,14.48
2022-10-06T01:48:11.722Z,14.47
2022-10-06T01:49:13.703Z,14.48
2022-10-06T01:50:16.060Z,14.47
2022-10-06T01:51:18.010Z,14.47
2022-10-06T01:52:19.962Z,14.46
2022-10-06T01:53:21.902Z,14.45
2022-10-06T01:54:23.892Z,14.45
2022-10-06T01:55:25.837Z,14.44
2022-10-06T01:56:27.794Z,14.43
2022-10-06T01:57:29.746Z,14.44
2022-10-06T01:58:32.039Z,14.43
2022-10-06T01:59:34.852Z,14.42
2022-10-06T02:00:37.075Z,14.42
2022-10-06T02:01:39.098Z,14.42
2022-10-06T02:02:41.008Z,14.41
2022-10-06T02:03:42.937Z,14.41
2022-10-06T02:04:44.895Z,14.41
2022-10-06T02:05:46.819Z,14.41
2022-10-06T02:06:48.857Z,14.42
2022-10-06T02:07:50.666Z,14.41
2022-10-06T02:08:52.603Z,14.41
2022-10-06T02:09:54.573Z,14.41
2022-10-06T02:10:56.711Z,14.40
2022-10-06T02:11:58.650Z,14.41
2022-10-06T02:13:00.584Z,14.40
2022-10-06T02:14:02.506Z,14.40
2022-10-06T02:15:04.475Z,14.39
2022-10-06T02:16:07.338Z,14.39
2022-10-06T02:17:12.579Z,14.38
2022-10-06T02:18:15.150Z,14.38
2022-10-06T02:19:17.222Z,14.38
2022-10-06T02:20:19.200Z,14.38
2022-10-06T02:21:21.315Z,14.38
2022-10-06T02:22:23.253Z,14.39
2022-10-06T02:23:25.158Z,14.40
2022-10-06T02:24:27.068Z,14.40
2022-10-06T02:25:29.028Z,14.41
2022-10-06T02:26:31.052Z,14.41
2022-10-06T02:27:32.961Z,14.42
2022-10-06T02:28:35.192Z,14.42
2022-10-06T02:29:37.192Z,14.41
2022-10-06T02:30:39.479Z,14.41
2022-10-06T02:31:41.519Z,14.43
2022-10-06T02:32:43.439Z,14.43
2022-10-06T02:33:45.356Z,14.42
2022-10-06T02:34:47.169Z,14.42
2022-10-06T02:35:49.125Z,14.42
2022-10-06T02:36:51.158Z,14.42
2022-10-06T02:37:53.075Z,14.42
2022-10-06T02:38:55.001Z,14.41
2022-10-06T02:39:56.917Z,14.40
2022-10-06T02:40:58.974Z,14.40
2022-10-06T02:42:01.101Z,14.39
2022-10-06T02:43:03.022Z,14.38
2022-10-06T02:44:04.948Z,14.36
2022-10-06T02:45:06.866Z,14.37
2022-10-06T02:46:09.326Z,14.37
2022-10-06T02:47:11.263Z,14.36
2022-10-06T02:48:13.203Z,14.38
2022-10-06T02:49:15.131Z,14.36
2022-10-06T02:50:17.253Z,14.37
2022-10-06T02:51:19.206Z,14.36
2022-10-06T02:52:21.134Z,14.37
2022-10-06T02:53:23.047Z,14.35
2022-10-06T02:54:24.973Z,14.34
2022-10-06T02:55:26.893Z,14.34
2022-10-06T02:56:28.932Z,14.34
2022-10-06T02:57:30.852Z,14.34
2022-10-06T02:58:32.962Z,14.34
2022-10-06T02:59:34.918Z,14.33
2022-10-06T03:00:36.836Z,14.34
2022-10-06T03:01:38.888Z,14.33
2022-10-06T03:02:40.936Z,14.33
2022-10-06T03:03:42.982Z,14.34
2022-10-06T03:04:44.892Z,14.34
2022-10-06T03:05:46.817Z,14.34
2022-10-06T03:06:48.765Z,14.33
2022-10-06T03:07:50.684Z,14.33
2022-10-06T03:08:55.723Z,14.31
2022-10-06T03:09:57.647Z,14.31
2022-10-06T03:10:59.551Z,14.30
2022-10-06T03:12:01.527Z,14.30
2022-10-06T03:13:03.443Z,14.29
2022-10-06T03:14:05.359Z,14.28
2022-10-06T03:15:07.290Z,14.28
2022-10-06T03:16:09.269Z,14.27
2022-10-06T03:17:11.378Z,14.27
2022-10-06T03:18:13.301Z,14.27
2022-10-06T03:19:15.214Z,14.25
2022-10-06T03:20:17.353Z,14.24
2022-10-06T03:21:19.265Z,14.23
2022-10-06T03:22:21.217Z,14.23
2022-10-06T03:23:23.139Z,14.22
2022-10-06T03:24:25.052Z,14.22
2022-10-06T03:25:26.971Z,14.21
2022-10-06T03:26:28.892Z,14.22
2022-10-06T03:27:30.879Z,14.20
2022-10-06T03:28:33.406Z,14.20
2022-10-06T03:29:35.737Z,14.20
2022-10-06T03:30:37.670Z,14.20
2022-10-06T03:31:39.651Z,14.20
2022-10-06T03:32:41.826Z,14.19
2022-10-06T03:33:43.752Z,14.18
2022-10-06T03:34:45.662Z,14.18
2022-10-06T03:35:47.598Z,14.18
2022-10-06T03:36:49.523Z,14.17
2022-10-06T03:37:52.556Z,14.17
2022-10-06T03:38:54.502Z,14.17
2022-10-06T03:39:56.430Z,14.17
2022-10-06T03:40:58.356Z,14.16
2022-10-06T03:42:00.278Z,14.14
2022-10-06T03:43:02.235Z,14.14
2022-10-06T03:44:04.145Z,14.14
2022-10-06T03:45:06.072Z,14.12
2022-10-06T03:46:08.595Z,14.12
2022-10-06T03:47:16.056Z,14.11
2022-10-06T03:48:14.318Z,14.11
2022-10-06T03:49:16.258Z,14.11
2022-10-06T03:50:18.943Z,14.09
2022-10-06T03:51:20.916Z,14.09
2022-10-06T03:52:26.006Z,14.09
2022-10-06T03:53:26.579Z,14.08
2022-10-06T03:54:28.507Z,14.07
2022-10-06T03:55:30.420Z,14.07
2022-10-06T03:56:32.449Z,14.08
2022-10-06T03:57:34.483Z,14.07
2022-10-06T03:58:36.447Z,14.07
2022-10-06T03:59:38.372Z,14.07
2022-10-06T04:00:40.485Z,14.06
2022-10-06T04:01:42.871Z,14.07
2022-10-06T04:02:44.926Z,14.06
2022-10-06T04:03:46.992Z,14.05
2022-10-06T04:04:48.909Z,14.04
2022-10-06T04:05:50.836Z,14.04
2022-10-06T04:06:52.969Z,14.03
2022-10-06T04:07:54.893Z,14.02
2022-10-06T04:08:56.854Z,14.03
2022-10-06T04:09:58.814Z,14.03
2022-10-06T04:11:00.794Z,14.04
2022-10-06T04:12:02.757Z,14.04
2022-10-06T04:13:04.698Z,14.05
2022-10-06T04:14:06.704Z,14.05
2022-10-06T04:15:08.635Z,14.06
2022-10-06T04:16:11.322Z,14.06
2022-10-06T04:17:13.245Z,14.05
2022-10-06T04:18:15.191Z,14.05
2022-10-06T04:19:17.212Z,14.06
2022-10-06T04:20:19.167Z,14.05
2022-10-06T04:21:21.520Z,14.06
2022-10-06T04:22:23.466Z,14.06
2022-10-06T04:23:25.425Z,14.06
2022-10-06T04:24:27.393Z,14.06
2022-10-06T04:25:29.347Z,14.07
2022-10-06T04:26:31.311Z,14.06
2022-10-06T04:27:33.244Z,14.08
2022-10-06T04:28:35.297Z,14.07
2022-10-06T04:29:37.297Z,14.08
2022-10-06T04:30:39.347Z,14.08
2022-10-06T04:31:41.486Z,14.09
2022-10-06T04:32:43.682Z,14.09
2022-10-06T04:33:45.628Z,14.11
2022-10-06T04:34:47.822Z,14.11
2022-10-06T04:35:49.774Z,14.12
2022-10-06T04:36:51.923Z,14.12
2022-10-06T04:37:53.869Z,14.13
2022-10-06T04:38:55.812Z,14.14
2022-10-06T04:39:57.810Z,14.16
2022-10-06T04:40:59.757Z,14.15
2022-10-06T04:42:01.699Z,14.16
2022-10-06T04:43:03.670Z,14.18
2022-10-06T04:44:05.614Z,14.18
2022-10-06T04:45:07.610Z,14.19
2022-10-06T04:46:37.723Z,14.20
2022-10-06T04:47:13.956Z,14.20
2022-10-06T04:48:15.906Z,14.20
2022-10-06T04:49:20.404Z,14.22
2022-10-06T04:50:21.840Z,14.24
2022-10-06T04:51:23.919Z,14.25
2022-10-06T04:52:25.876Z,14.27
2022-10-06T04:53:27.816Z,14.28
2022-10-06T04:54:33.507Z,14.29
2022-10-06T04:55:33.586Z,14.30
2022-10-06T04:56:35.534Z,14.32
2022-10-06T04:57:37.493Z,14.33
2022-10-06T04:58:39.581Z,14.35
2022-10-06T04:59:41.531Z,14.37
2022-10-06T05:00:43.494Z,14.39
2022-10-06T05:01:45.626Z,14.41
2022-10-06T05:02:47.725Z,14.42
2022-10-06T05:03:49.668Z,14.43
2022-10-06T05:04:51.625Z,14.44
2022-10-06T05:05:53.643Z,14.46
2022-10-06T05:06:55.599Z,14.47
2022-10-06T05:07:57.559Z,14.49
2022-10-06T05:08:59.492Z,14.51
2022-10-06T05:10:01.456Z,14.53
2022-10-06T05:11:03.437Z,14.53
2022-10-06T05:12:05.385Z,14.56
2022-10-06T05:13:07.356Z,14.58
2022-10-06T05:14:09.281Z,14.59
2022-10-06T05:15:11.030Z,14.61
2022-10-06T05:16:13.093Z,14.61
2022-10-06T05:17:15.080Z,14.63
2022-10-06T05:18:17.030Z,14.63
2022-10-06T05:19:18.983Z,14.64
2022-10-06T05:20:20.934Z,14.66
2022-10-06T05:21:23.023Z,14.67
2022-10-06T05:22:24.961Z,14.69
2022-10-06T05:23:26.901Z,14.70
2022-10-06T05:24:28.856Z,14.70
2022-10-06T05:25:30.789Z,14.73
2022-10-06T05:26:32.804Z,14.74
2022-10-06T05:27:34.768Z,14.75
2022-10-06T05:28:36.775Z,14.75
2022-10-06T05:29:38.887Z,14.77
2022-10-06T05:30:40.858Z,14.78
2022-10-06T05:31:42.913Z,14.80
2022-10-06T05:32:45.000Z,14.80
2022-10-06T05:33:46.934Z,14.81
2022-10-06T05:34:48.909Z,14.81
2022-10-06T05:35:50.862Z,14.83
2022-10-06T05:36:52.904Z,14.93
2022-10-06T05:37:54.889Z,15.17
2022-10-06T05:38:56.828Z,15.42
2022-10-06T05:39:58.809Z,15.65
2022-10-06T05:41:00.770Z,15.87
2022-10-06T05:42:02.785Z,16.05
2022-10-06T05:43:04.763Z,16.22
2022-10-06T05:44:06.746Z,16.38
2022-10-06T05:45:08.699Z,16.54
2022-10-06T05:46:11.294Z,16.69
2022-10-06T05:47:13.320Z,16.82
2022-10-06T05:48:15.277Z,16.94
2022-10-06T05:49:17.281Z,17.06
2022-10-06T05:50:20.748Z,17.17
2022-10-06T05:51:25.616Z,17.28
2022-10-06T05:52:26.928Z,17.37
2022-10-06T05:53:28.893Z,17.48
2022-10-06T05:54:30.848Z,17.53
2022-10-06T05:55:32.810Z,17.61
2022-10-06T05:56:34.745Z,17.67
2022-10-06T05:57:36.732Z,17.73
2022-10-06T05:58:38.695Z,17.81
2022-10-06T05:59:40.658Z,17.87
2022-10-06T06:00:42.741Z,17.94
2022-10-06T06:01:44.777Z,17.99
2022-10-06T06:02:47.051Z,18.04
2022-10-06T06:03:49.059Z,18.08
2022-10-06T06:04:51.015Z,18.11
2022-10-06T06:05:52.983Z,18.14
2022-10-06T06:06:54.961Z,18.18
2022-10-06T06:07:57.018Z,18.21
2022-10-06T06:08:58.986Z,18.27
2022-10-06T06:10:00.948Z,18.32
2022-10-06T06:11:02.891Z,18.37
2022-10-06T06:12:04.839Z,18.42
2022-10-06T06:13:06.829Z,18.48
2022-10-06T06:14:08.809Z,18.51
2022-10-06T06:15:10.776Z,18.59
2022-10-06T06:16:13.372Z,18.64
2022-10-06T06:17:15.507Z,18.70
2022-10-06T06:18:17.598Z,18.75
2022-10-06T06:19:19.566Z,18.83
2022-10-06T06:20:21.648Z,18.93
2022-10-06T06:21:23.616Z,19.03
2022-10-06T06:22:25.576Z,19.12
2022-10-06T06:23:27.668Z,19.20
2022-10-06T06:24:29.613Z,19.25
2022-10-06T06:25:31.590Z,19.32
2022-10-06T06:26:33.698Z,19.35
2022-10-06T06:27:35.588Z,19.36
2022-10-06T06:28:37.615Z,19.39
2022-10-06T06:29:39.595Z,19.42
2022-10-06T06:30:41.693Z,19.44
2022-10-06T06:31:43.707Z,19.48
2022-10-06T06:32:45.698Z,19.49
2022-10-06T06:33:47.648Z,19.51
2022-10-06T06:34:49.591Z,19.53
2022-10-06T06:35:51.519Z,19.53
2022-10-06T06:36:53.701Z,19.54
2022-10-06T06:37:55.588Z,19.55
2022-10-06T06:38:57.580Z,19.55
2022-10-06T06:39:59.600Z,19.56
2022-10-06T06:41:01.528Z,19.57
2022-10-06T06:42:03.598Z,19.58
2022-10-06T06:43:05.584Z,19.58
2022-10-06T06:44:07.544Z,19.58
2022-10-06T06:45:09.379Z,19.59
2022-10-06T06:46:12.033Z,19.59
2022-10-06T06:47:14.181Z,19.58
2022-10-06T06:48:16.265Z,19.57
2022-10-06T06:49:18.141Z,19.57
2022-10-06T06:50:20.181Z,19.59
2022-10-06T06:51:22.113Z,19.61
2022-10-06T06:52:24.049Z,19.62
2022-10-06T06:53:25.976Z,19.62
2022-10-06T06:54:28.021Z,19.63
2022-10-06T06:55:29.956Z,19.64
2022-10-06T06:56:32.006Z,19.66
2022-10-06T06:57:33.939Z,19.68
2022-10-06T06:58:35.860Z,19.68
2022-10-06T06:59:37.957Z,19.69
2022-10-06T07:00:39.880Z,19.70
2022-10-06T07:01:41.983Z,19.71
2022-10-06T07:02:44.073Z,19.72
2022-10-06T07:03:57.022Z,19.73
2022-10-06T07:04:49.809Z,19.73
2022-10-06T07:05:51.741Z,19.73
2022-10-06T07:06:53.694Z,19.74
2022-10-06T07:07:55.839Z,19.75
2022-10-06T07:08:57.784Z,19.74
2022-10-06T07:09:59.864Z,19.70
2022-10-06T07:11:01.796Z,19.64
2022-10-06T07:12:03.770Z,19.59
2022-10-06T07:13:05.672Z,19.53
2022-10-06T07:14:07.601Z,19.48
2022-10-06T07:15:09.631Z,19.44
2022-10-06T07:16:11.724Z,19.40
2022-10-06T07:17:13.655Z,19.35
2022-10-06T07:18:15.601Z,19.29
2022-10-06T07:19:20.183Z,19.25
2022-10-06T07:20:21.344Z,19.22
2022-10-06T07:21:23.318Z,19.17
2022-10-06T07:22:25.238Z,19.13
2022-10-06T07:23:27.168Z,19.09
2022-10-06T07:24:29.104Z,19.04
2022-10-06T07:25:31.097Z,19.01
2022-10-06T07:26:33.030Z,18.97
2022-10-06T07:27:34.965Z,18.92
2022-10-06T07:28:36.942Z,18.89
2022-10-06T07:29:38.835Z,18.87
2022-10-06T07:30:41.183Z,18.84
2022-10-06T07:31:43.274Z,18.80
2022-10-06T07:32:45.181Z,18.78
2022-10-06T07:33:47.125Z,18.75
2022-10-06T07:34:49.058Z,18.72
2022-10-06T07:35:51.005Z,18.71
2022-10-06T07:36:52.928Z,18.69
2022-10-06T07:37:54.857Z,18.66
2022-10-06T07:38:56.766Z,18.66
2022-10-06T07:39:58.700Z,18.64
2022-10-06T07:41:18.948Z,18.61
2022-10-06T07:42:04.592Z,18.59
2022-10-06T07:43:06.537Z,18.58
2022-10-06T07:44:08.491Z,18.55
2022-10-06T07:45:10.415Z,18.55
2022-10-06T07:46:12.846Z,18.53
2022-10-06T07:47:14.747Z,18.52
2022-10-06T07:48:16.770Z,18.50
2022-10-06T07:49:18.675Z,18.49
2022-10-06T07:50:21.081Z,18.47
2022-10-06T07:51:23.053Z,18.45
2022-10-06T07:52:24.986Z,18.44
2022-10-06T07:53:26.961Z,18.40
2022-10-06T07:54:28.893Z,18.39
2022-10-06T07:55:30.872Z,18.36
2022-10-06T07:56:32.873Z,18.35
2022-10-06T07:57:34.801Z,18.34
2022-10-06T07:58:36.816Z,18.34
2022-10-06T07:59:38.829Z,18.32
2022-10-06T08:00:40.786Z,18.31
2022-10-06T08:01:42.793Z,18.31
2022-10-06T08:02:44.682Z,18.30
2022-10-06T08:03:46.701Z,18.29
2022-10-06T08:04:48.628Z,18.28
2022-10-06T08:05:50.598Z,18.26
2022-10-06T08:06:52.588Z,18.26
2022-10-06T08:07:54.505Z,18.24
2022-10-06T08:08:56.497Z,18.23
2022-10-06T08:09:58.500Z,18.22
2022-10-06T08:11:01.779Z,18.22
2022-10-06T08:12:04.100Z,18.22
2022-10-06T08:13:06.042Z,18.22
2022-10-06T08:14:07.951Z,18.22
2022-10-06T08:15:09.874Z,18.22
2022-10-06T08:16:12.776Z,18.21
2022-10-06T08:17:14.789Z,18.21
2022-10-06T08:18:41.123Z,18.23
2022-10-06T08:19:20.532Z,18.23
2022-10-06T08:20:22.571Z,18.22
2022-10-06T08:21:24.497Z,18.22
2022-10-06T08:22:26.479Z,18.22
2022-10-06T08:23:28.417Z,18.24
2022-10-06T08:24:37.884Z,18.24
2022-10-06T08:25:34.130Z,18.24
2022-10-06T08:26:36.358Z,18.24
2022-10-06T08:27:38.363Z,18.24
2022-10-06T08:28:40.387Z,18.25
2022-10-06T08:29:42.350Z,18.27
2022-10-06T08:30:44.277Z,18.28
2022-10-06T08:31:46.284Z,18.30
2022-10-06T08:32:48.755Z,18.29
2022-10-06T08:33:50.796Z,18.28
2022-10-06T08:34:53.107Z,18.30
2022-10-06T08:35:55.206Z,18.32
2022-10-06T08:37:18.705Z,18.30
2022-10-06T08:38:01.123Z,18.32
2022-10-06T08:39:03.094Z,18.31
2022-10-06T08:40:05.429Z,18.30
2022-10-06T08:41:07.910Z,18.30
2022-10-06T08:42:09.896Z,18.29
2022-10-06T08:43:11.954Z,18.29
2022-10-06T08:44:13.897Z,18.31
2022-10-06T08:45:15.901Z,18.32
2022-10-06T08:46:19.943Z,18.31
2022-10-06T08:47:21.638Z,18.33
2022-10-06T08:48:23.607Z,18.33
2022-10-06T08:49:25.653Z,18.34
2022-10-06T08:50:27.649Z,18.34
2022-10-06T08:51:29.659Z,18.35
2022-10-06T08:52:31.597Z,18.35
2022-10-06T08:53:33.628Z,18.37
2022-10-06T08:54:35.605Z,18.38
2022-10-06T08:55:37.558Z,18.39
2022-10-06T08:56:39.528Z,18.40
2022-10-06T08:57:41.470Z,18.40
2022-10-06T08:59:56.642Z,18.52
2022-10-06T09:00:58.851Z,18.39
2022-10-06T09:02:00.857Z,18.40
2022-10-06T09:03:02.926Z,18.42
2022-10-06T09:04:04.891Z,18.46
2022-10-06T09:05:06.884Z,18.47
2022-10-06T09:06:10.141Z,18.48
2022-10-06T09:07:12.092Z,18.49
2022-10-06T09:08:14.049Z,18.50
2022-10-06T09:09:16.172Z,18.50
2022-10-06T09:10:18.516Z,18.52
2022-10-06T09:11:20.565Z,18.53
2022-10-06T09:12:22.551Z,18.52
2022-10-06T09:13:24.535Z,18.52
2022-10-06T09:14:26.666Z,18.54
2022-10-06T09:15:28.618Z,18.56
2022-10-06T09:16:30.609Z,18.57
2022-10-06T09:17:32.494Z,18.57
2022-10-06T09:18:49.790Z,18.57
2022-10-06T09:19:38.222Z,18.59
2022-10-06T09:20:40.206Z,18.61
2022-10-06T09:21:42.158Z,18.62
2022-10-06T09:22:44.137Z,18.63
2022-10-06T09:23:46.090Z,18.63
2022-10-06T09:24:48.037Z,18.65
2022-10-06T09:25:50.058Z,18.65
2022-10-06T09:26:52.008Z,18.65
2022-10-06T09:27:53.957Z,18.68
2022-10-06T09:28:55.908Z,18.67
2022-10-06T09:29:58.362Z,18.68
2022-10-06T09:31:00.624Z,18.68
2022-10-06T09:32:02.613Z,18.67
2022-10-06T09:33:04.585Z,18.70
2022-10-06T09:34:06.526Z,18.71
2022-10-06T09:35:08.476Z,18.73
2022-10-06T09:36:11.088Z,18.74
2022-10-06T09:37:13.028Z,18.75
2022-10-06T09:38:14.992Z,18.75
2022-10-06T09:39:17.008Z,18.76
2022-10-06T09:40:19.027Z,18.78
2022-10-06T09:41:21.332Z,18.77
2022-10-06T09:42:23.338Z,18.78
2022-10-06T09:43:25.267Z,18.80
2022-10-06T09:44:27.229Z,18.82
2022-10-06T09:45:29.340Z,18.83
2022-10-06T09:46:31.409Z,18.86
2022-10-06T09:47:33.370Z,18.86
2022-10-06T09:48:35.518Z,18.87
2022-10-06T09:49:37.487Z,18.86
2022-10-06T09:50:39.530Z,18.86
2022-10-06T09:51:41.632Z,18.85
2022-10-06T09:52:43.581Z,18.86
2022-10-06T09:53:45.529Z,18.84
2022-10-06T09:54:47.481Z,18.86
2022-10-06T09:55:49.433Z,18.85
2022-10-06T09:56:51.509Z,18.85
2022-10-06T09:57:53.475Z,18.84
2022-10-06T09:58:55.721Z,18.85
2022-10-06T09:59:58.284Z,18.86
2022-10-06T10:01:00.748Z,18.89
2022-10-06T10:02:02.806Z,18.89
2022-10-06T10:03:04.826Z,18.90
2022-10-06T10:04:20.081Z,18.91
2022-10-06T10:05:10.684Z,18.91
2022-10-06T10:06:13.455Z,18.94
2022-10-06T10:08:43.134Z,18.93
2022-10-06T10:09:45.073Z,18.95
2022-10-06T10:10:47.439Z,18.95
2022-10-06T10:11:49.414Z,18.95
2022-10-06T10:12:51.420Z,18.95
2022-10-06T10:13:53.369Z,18.93
2022-10-06T10:14:55.549Z,18.92
2022-10-06T10:15:57.469Z,18.93
2022-10-06T10:17:00.089Z,18.92
2022-10-06T10:18:02.079Z,18.92
2022-10-06T10:19:05.158Z,18.92
2022-10-06T10:20:08.107Z,18.92
2022-10-06T10:21:10.059Z,18.92
2022-10-06T10:22:11.997Z,18.91
2022-10-06T10:23:13.970Z,18.93
2022-10-06T10:24:17.127Z,18.95
2022-10-06T10:25:19.036Z,18.95
2022-10-06T10:26:21.082Z,18.97
2022-10-06T10:27:23.011Z,18.97
2022-10-06T10:28:25.024Z,18.99
2022-10-06T10:29:30.543Z,19.00
2022-10-06T10:30:30.670Z,19.02
2022-10-06T10:31:32.678Z,19.02
2022-10-06T10:32:34.684Z,19.00
2022-10-06T10:33:36.661Z,19.03
2022-10-06T10:34:38.576Z,19.03
2022-10-06T10:35:40.527Z,19.04
2022-10-06T10:36:42.459Z,19.04
2022-10-06T10:37:44.394Z,19.05
2022-10-06T10:38:46.386Z,19.03
2022-10-06T10:39:48.286Z,19.04
2022-10-06T10:40:50.254Z,19.04
2022-10-06T10:41:52.410Z,19.03
2022-10-06T10:42:54.986Z,19.03
2022-10-06T10:43:59.620Z,19.02
2022-10-06T10:45:00.813Z,19.02
2022-10-06T10:46:02.784Z,19.02
2022-10-06T10:47:04.737Z,19.02
2022-10-06T10:48:06.692Z,19.03
2022-10-06T10:49:08.651Z,19.03
2022-10-06T10:50:10.989Z,19.03
2022-10-06T10:51:12.913Z,19.03
2022-10-06T10:52:14.864Z,19.04
2022-10-06T10:54:18.801Z,19.02
2022-10-06T10:55:20.780Z,19.03
2022-10-06T10:56:22.853Z,19.03
2022-10-06T10:57:24.733Z,19.03
2022-10-06T10:58:27.047Z,19.03
2022-10-06T10:59:29.256Z,19.03
2022-10-06T11:00:31.308Z,19.02
2022-10-06T11:01:33.297Z,19.02
2022-10-06T11:02:35.184Z,19.02
2022-10-06T11:03:37.266Z,19.02
2022-10-06T11:04:39.233Z,19.00
2022-10-06T11:05:41.162Z,19.01
2022-10-06T11:06:43.097Z,19.00
2022-10-06T11:07:45.080Z,19.00
2022-10-06T11:08:47.006Z,18.99
2022-10-06T11:09:49.015Z,18.99
2022-10-06T11:10:50.947Z,18.99
2022-10-06T11:11:52.878Z,18.99
2022-10-06T11:12:54.863Z,18.99
2022-10-06T11:13:56.801Z,19.00
2022-10-06T11:14:59.094Z,18.99
2022-10-06T11:16:01.612Z,19.00
2022-10-06T11:17:03.665Z,19.01
2022-10-06T11:18:05.647Z,19.01
2022-10-06T11:19:07.630Z,19.01
2022-10-06T11:20:09.733Z,19.01
2022-10-06T11:21:11.708Z,19.00
2022-10-06T11:22:13.690Z,19.01
2022-10-06T11:23:15.643Z,19.00
2022-10-06T11:24:17.579Z,19.00
2022-10-06T11:25:19.600Z,19.01
2022-10-06T11:26:21.541Z,19.01
2022-10-06T11:27:23.500Z,19.02
2022-10-06T11:28:25.642Z,19.02
2022-10-06T11:29:27.710Z,18.98
2022-10-06T11:30:29.778Z,19.02
2022-10-06T11:31:31.755Z,19.01
2022-10-06T11:32:33.712Z,19.01
2022-10-06T11:33:35.857Z,19.01
2022-10-06T11:34:37.925Z,19.02
2022-10-06T11:35:40.186Z,19.03
2022-10-06T11:36:42.240Z,19.02
2022-10-06T11:37:44.182Z,19.02
2022-10-06T11:38:46.143Z,19.02
2022-10-06T11:39:48.082Z,19.02
2022-10-06T11:40:50.068Z,19.03
2022-10-06T11:41:52.036Z,19.03
2022-10-06T11:42:53.994Z,19.02
2022-10-06T11:43:55.957Z,19.02
2022-10-06T11:44:58.284Z,19.02
2022-10-06T11:46:00.470Z,19.01
2022-10-06T11:47:02.464Z,19.01
2022-10-06T11:48:04.421Z,19.00
2022-10-06T11:49:06.386Z,19.01
2022-10-06T11:50:08.525Z,19.00
2022-10-06T11:51:10.554Z,18.99
2022-10-06T11:52:12.525Z,18.99
2022-10-06T11:53:14.451Z,18.99
2022-10-06T11:54:16.412Z,18.99
2022-10-06T11:55:18.372Z,18.99
2022-10-06T11:56:20.466Z,18.98
2022-10-06T11:57:26.232Z,18.97
2022-10-06T11:58:42.583Z,18.98
2022-10-06T11:59:29.986Z,18.96
2022-10-06T12:00:32.167Z,18.95
2022-10-06T12:01:34.174Z,18.95
2022-10-06T12:02:36.226Z,18.95
2022-10-06T12:03:38.434Z,18.95
2022-10-06T12:04:40.334Z,18.95
2022-10-06T12:05:57.680Z,18.96
2022-10-06T12:06:46.235Z,18.97
2022-10-06T12:07:48.186Z,18.97
2022-10-06T12:08:50.140Z,18.98
2022-10-06T12:09:53.167Z,18.98
2022-10-06T12:10:55.498Z,19.00
2022-10-06T12:11:57.500Z,19.01
2022-10-06T12:13:07.281Z,19.03
2022-10-06T12:17:05.110Z,19.03
2022-10-06T12:17:19.280Z,19.03
2022-10-06T12:18:18.979Z,19.03
2022-10-06T12:19:20.936Z,19.03
2022-10-06T12:20:22.911Z,19.02
2022-10-06T12:21:24.923Z,19.03
2022-10-06T12:22:26.925Z,19.01
2022-10-06T12:23:28.929Z,19.03
2022-10-06T12:24:30.890Z,19.02
2022-10-06T12:25:32.849Z,19.01
2022-10-06T12:26:34.829Z,19.03
2022-10-06T12:27:36.830Z,19.02
2022-10-06T12:28:38.947Z,19.03
2022-10-06T12:29:40.931Z,19.04
2022-10-06T12:30:42.995Z,19.04
2022-10-06T12:31:45.038Z,19.04
2022-10-06T12:32:47.022Z,19.05
2022-10-06T12:33:48.975Z,19.05
2022-10-06T12:34:50.930Z,19.05
2022-10-06T12:35:52.902Z,19.04
2022-10-06T12:36:54.987Z,19.05
2022-10-06T12:37:56.988Z,19.06
2022-10-06T12:38:59.018Z,19.06
2022-10-06T12:40:00.984Z,19.07
2022-10-06T12:41:02.982Z,19.07
2022-10-06T12:42:04.938Z,19.08
2022-10-06T12:43:06.942Z,19.09
2022-10-06T12:44:08.899Z,19.10
2022-10-06T12:45:11.013Z,19.11
2022-10-06T12:46:14.720Z,19.12
2022-10-06T12:47:16.752Z,19.11
2022-10-06T12:48:18.721Z,19.11
2022-10-06T12:49:20.690Z,19.12
2022-10-06T12:50:22.662Z,19.11
2022-10-06T12:51:24.655Z,19.13
2022-10-06T12:52:26.701Z,19.13
2022-10-06T12:53:28.746Z,19.13
2022-10-06T12:54:30.662Z,19.12
2022-10-06T12:55:32.642Z,19.12
2022-10-06T12:56:34.584Z,19.12
2022-10-06T12:57:36.566Z,19.13
2022-10-06T12:58:38.581Z,19.13
2022-10-06T12:59:40.536Z,19.15
2022-10-06T13:00:42.719Z,19.14
2022-10-06T13:01:44.900Z,19.14
2022-10-06T13:02:46.930Z,19.15
2022-10-06T13:03:48.871Z,19.14
2022-10-06T13:04:50.849Z,19.14
2022-10-06T13:05:52.841Z,19.16
2022-10-06T13:06:54.889Z,19.15
2022-10-06T13:07:56.872Z,19.15
2022-10-06T13:08:58.866Z,19.18
2022-10-06T13:10:00.822Z,19.17
2022-10-06T13:11:02.785Z,19.18
2022-10-06T13:12:04.745Z,19.18
2022-10-06T13:13:06.698Z,19.17
2022-10-06T13:14:08.683Z,19.18
2022-10-06T13:15:10.648Z,19.18
2022-10-06T13:16:12.738Z,19.19
2022-10-06T13:17:14.739Z,19.20
2022-10-06T13:18:16.643Z,19.19
2022-10-06T13:19:18.929Z,19.21
2022-10-06T13:20:20.947Z,19.20
2022-10-06T13:21:22.895Z,19.21
2022-10-06T13:22:24.845Z,19.20
2022-10-06T13:23:26.816Z,19.20
2022-10-06T13:24:28.870Z,19.20
2022-10-06T13:25:30.804Z,19.19